Terminal Aerodrome Forecast
Issued by NWS

Home | Current Version | Previous Version | Text Only | Print | Product List | Glossary On
Versions: 1 2 3 4 5 6 7 8 9 10 11 12 13 14 15 16 17 18 19 20 21 22
000
FTUS42 KFFC 150800 AAA
TAFFTY
TAF AMD
KFTY 150851Z 1509/1606 06005KT 6SM BR OVC006
     FM151000 07005KT 3SM BR OVC004
     FM151400 10006KT P6SM OVC006
     FM151600 13006KT P6SM BKN012
     FM151800 19006KT P6SM BKN025
     FM152000 22006KT P6SM VCSH SCT025 BKN040 PROB30 1521/1601 4SM
      -TSRA BKN025CB
     FM160300 25004KT P6SM VCSH SCT030 BKN050=

USA.gov is the U.S. government's official web portal to all federal, state and local government web resources and services.